sensor_id;sensor_type;location;lat;lon;timestamp;temperature;humidity
1123;DHT22;548;48.778;9.252;2023-04-01T00:01:27;9.80;99.90
1123;DHT22;548;48.778;9.252;2023-04-01T00:03:54;9.80;99.90
1123;DHT22;548;48.778;9.252;2023-04-01T00:06:21;9.80;99.90
1123;DHT22;548;48.778;9.252;2023-04-01T00:08:48;9.80;99.90
1123;DHT22;548;48.778;9.252;2023-04-01T00:11:16;9.80;99.90
1123;DHT22;548;48.778;9.252;2023-04-01T00:13:44;9.90;99.90
1123;DHT22;548;48.778;9.252;2023-04-01T00:16:11;9.90;99.90
1123;DHT22;548;48.778;9.252;2023-04-01T00:18:37;9.90;99.90
1123;DHT22;548;48.778;9.252;2023-04-01T00:21:05;10.00;99.90
1123;DHT22;548;48.778;9.252;2023-04-01T00:23:32;10.00;99.90
1123;DHT22;548;48.778;9.252;2023-04-01T00:25:59;10.00;99.90
1123;DHT22;548;48.778;9.252;2023-04-01T00:28:27;10.00;99.90
1123;DHT22;548;48.778;9.252;2023-04-01T00:30:54;10.00;99.90
1123;DHT22;548;48.778;9.252;2023-04-01T00:33:21;9.90;99.90
1123;DHT22;548;48.778;9.252;2023-04-01T00:35:48;9.90;99.90
1123;DHT22;548;48.778;9.252;2023-04-01T00:38:14;9.90;99.90
1123;DHT22;548;48.778;9.252;2023-04-01T00:40:44;9.90;99.90
1123;DHT22;548;48.778;9.252;2023-04-01T00:43:13;9.90;99.90
1123;DHT22;548;48.778;9.252;2023-04-01T00:45:42;9.90;99.90
1123;DHT22;548;48.778;9.252;2023-04-01T00:48:11;9.90;99.90
1123;DHT22;548;48.778;9.252;2023-04-01T00:50:41;9.90;99.90
1123;DHT22;548;48.778;9.252;2023-04-01T00:53:08;9.90;99.90
1123;DHT22;548;48.778;9.252;2023-04-01T00:55:40;10.00;99.90
1123;DHT22;548;48.778;9.252;2023-04-01T00:58:13;10.00;99.90
1123;DHT22;548;48.778;9.252;2023-04-01T01:00:42;9.90;99.90
1123;DHT22;548;48.778;9.252;2023-04-01T01:03:09;9.80;99.90
1123;DHT22;548;48.778;9.252;2023-04-01T01:05:49;9.80;99.90
1123;DHT22;548;48.778;9.252;2023-04-01T01:08:28;9.80;99.90
1123;DHT22;548;48.778;9.252;2023-04-01T01:11:03;9.90;99.90
1123;DHT22;548;48.778;9.252;2023-04-01T01:13:36;9.80;99.90
1123;DHT22;548;48.778;9.252;2023-04-01T01:16:12;9.80;99.90
1123;DHT22;548;48.778;9.252;2023-04-01T01:18:45;9.70;99.90
1123;DHT22;548;48.778;9.252;2023-04-01T01:24:57;9.60;99.90
1123;DHT22;548;48.778;9.252;2023-04-01T01:27:29;9.60;99.90
1123;DHT22;548;48.778;9.252;2023-04-01T01:30:27;9.60;99.90
1123;DHT22;548;48.778;9.252;2023-04-01T01:35:50;9.70;99.90
1123;DHT22;548;48.778;9.252;2023-04-01T01:38:21;9.70;99.90
1123;DHT22;548;48.778;9.252;2023-04-01T01:40:50;9.70;99.90
1123;DHT22;548;48.778;9.252;2023-04-01T01:43:23;9.70;99.90
1123;DHT22;548;48.778;9.252;2023-04-01T01:45:53;9.70;99.90
1123;DHT22;548;48.778;9.252;2023-04-01T01:48:23;9.80;99.90
1123;DHT22;548;48.778;9.252;2023-04-01T01:50:52;9.80;99.90
1123;DHT22;548;48.778;9.252;2023-04-01T01:53:19;9.80;99.90
1123;DHT22;548;48.778;9.252;2023-04-01T01:55:47;9.70;99.90
1123;DHT22;548;48.778;9.252;2023-04-01T01:58:18;9.70;99.90
1123;DHT22;548;48.778;9.252;2023-04-01T02:00:49;9.70;99.90
1123;DHT22;548;48.778;9.252;2023-04-01T02:03:19;9.60;99.90
1123;DHT22;548;48.778;9.252;2023-04-01T02:05:46;9.50;99.90
1123;DHT22;548;48.778;9.252;2023-04-01T02:08:17;9.40;99.90
1123;DHT22;548;48.778;9.252;2023-04-01T02:10:52;9.40;99.90
1123;DHT22;548;48.778;9.252;2023-04-01T02:13:25;9.40;99.90
1123;DHT22;548;48.778;9.252;2023-04-01T02:15:57;9.40;99.90
1123;DHT22;548;48.778;9.252;2023-04-01T02:18:26;9.40;99.90
1123;DHT22;548;48.778;9.252;2023-04-01T02:20:56;9.40;99.90
1123;DHT22;548;48.778;9.252;2023-04-01T02:23:25;9.30;99.90
1123;DHT22;548;48.778;9.252;2023-04-01T02:25:53;9.30;99.90
1123;DHT22;548;48.778;9.252;2023-04-01T02:28:21;9.40;99.90
1123;DHT22;548;48.778;9.252;2023-04-01T02:30:49;9.40;99.90
1123;DHT22;548;48.778;9.252;2023-04-01T02:33:17;9.40;99.90
1123;DHT22;548;48.778;9.252;2023-04-01T02:35:44;9.40;99.90
1123;DHT22;548;48.778;9.252;2023-04-01T02:38:11;9.40;99.90
1123;DHT22;548;48.778;9.252;2023-04-01T02:40:44;9.40;99.90
1123;DHT22;548;48.778;9.252;2023-04-01T02:43:11;9.40;99.90
1123;DHT22;548;48.778;9.252;2023-04-01T02:45:38;9.30;99.90
1123;DHT22;548;48.778;9.252;2023-04-01T02:48:05;9.30;99.90
1123;DHT22;548;48.778;9.252;2023-04-01T02:50:32;9.20;99.90
1123;DHT22;548;48.778;9.252;2023-04-01T02:52:59;9.20;99.90
1123;DHT22;548;48.778;9.252;2023-04-01T02:55:25;9.20;99.90
1123;DHT22;548;48.778;9.252;2023-04-01T02:57:53;9.10;99.90
1123;DHT22;548;48.778;9.252;2023-04-01T03:00:20;9.20;99.90
1123;DHT22;548;48.778;9.252;2023-04-01T03:02:47;9.20;99.90
1123;DHT22;548;48.778;9.252;2023-04-01T03:05:13;9.20;99.90
1123;DHT22;548;48.778;9.252;2023-04-01T03:07:40;9.30;99.90
1123;DHT22;548;48.778;9.252;2023-04-01T03:10:08;9.30;99.90
1123;DHT22;548;48.778;9.252;2023-04-01T03:12:35;9.30;99.90
1123;DHT22;548;48.778;9.252;2023-04-01T03:15:04;9.30;99.90
1123;DHT22;548;48.778;9.252;2023-04-01T03:17:31;9.30;99.90
1123;DHT22;548;48.778;9.252;2023-04-01T03:19:58;9.30;99.90
1123;DHT22;548;48.778;9.252;2023-04-01T03:22:24;9.30;99.90
1123;DHT22;548;48.778;9.252;2023-04-01T03:24:51;9.40;99.90
1123;DHT22;548;48.778;9.252;2023-04-01T03:27:18;9.40;99.90
1123;DHT22;548;48.778;9.252;2023-04-01T03:29:45;9.30;99.90
1123;DHT22;548;48.778;9.252;2023-04-01T03:32:13;9.20;99.90
1123;DHT22;548;48.778;9.252;2023-04-01T03:34:39;9.10;99.90
1123;DHT22;548;48.778;9.252;2023-04-01T03:37:06;9.20;99.90
1123;DHT22;548;48.778;9.252;2023-04-01T03:39:33;9.20;99.90
1123;DHT22;548;48.778;9.252;2023-04-01T03:42:00;9.30;99.90
1123;DHT22;548;48.778;9.252;2023-04-01T03:44:30;9.30;99.90
1123;DHT22;548;48.778;9.252;2023-04-01T03:46:57;9.40;99.90
1123;DHT22;548;48.778;9.252;2023-04-01T03:49:25;9.40;99.90
1123;DHT22;548;48.778;9.252;2023-04-01T03:51:52;9.50;99.90
1123;DHT22;548;48.778;9.252;2023-04-01T03:54:18;9.50;99.90
1123;DHT22;548;48.778;9.252;2023-04-01T03:56:46;9.50;99.90
1123;DHT22;548;48.778;9.252;2023-04-01T03:59:12;9.50;99.90
1123;DHT22;548;48.778;9.252;2023-04-01T04:01:39;9.50;99.90
1123;DHT22;548;48.778;9.252;2023-04-01T04:04:06;9.50;99.90
1123;DHT22;548;48.778;9.252;2023-04-01T04:06:34;9.40;99.90
1123;DHT22;548;48.778;9.252;2023-04-01T04:09:01;9.30;99.90
1123;DHT22;548;48.778;9.252;2023-04-01T04:11:30;9.20;99.90
1123;DHT22;548;48.778;9.252;2023-04-01T04:13:57;9.20;99.90
1123;DHT22;548;48.778;9.252;2023-04-01T04:16:24;9.10;99.90
1123;DHT22;548;48.778;9.252;2023-04-01T04:18:50;9.10;99.90
1123;DHT22;548;48.778;9.252;2023-04-01T04:21:17;9.00;99.90
1123;DHT22;548;48.778;9.252;2023-04-01T04:23:45;9.00;99.90
1123;DHT22;548;48.778;9.252;2023-04-01T04:26:14;8.90;99.90
1123;DHT22;548;48.778;9.252;2023-04-01T04:28:41;8.90;99.90
1123;DHT22;548;48.778;9.252;2023-04-01T04:31:08;8.90;99.90
1123;DHT22;548;48.778;9.252;2023-04-01T04:33:35;8.90;99.90
1123;DHT22;548;48.778;9.252;2023-04-01T04:36:03;8.90;99.90
1123;DHT22;548;48.778;9.252;2023-04-01T04:38:30;8.80;99.90
1123;DHT22;548;48.778;9.252;2023-04-01T04:40:58;8.80;99.90
1123;DHT22;548;48.778;9.252;2023-04-01T04:43:25;8.70;99.90
1123;DHT22;548;48.778;9.252;2023-04-01T04:45:52;8.70;99.90
1123;DHT22;548;48.778;9.252;2023-04-01T04:48:18;8.70;99.90
1123;DHT22;548;48.778;9.252;2023-04-01T04:50:46;8.70;99.90
1123;DHT22;548;48.778;9.252;2023-04-01T04:53:13;8.70;99.90
1123;DHT22;548;48.778;9.252;2023-04-01T04:55:43;8.80;99.90
1123;DHT22;548;48.778;9.252;2023-04-01T04:58:11;8.80;99.90
1123;DHT22;548;48.778;9.252;2023-04-01T05:00:38;8.80;99.90
1123;DHT22;548;48.778;9.252;2023-04-01T05:03:05;8.80;99.90
1123;DHT22;548;48.778;9.252;2023-04-01T05:05:32;8.80;99.90
1123;DHT22;548;48.778;9.252;2023-04-01T05:07:58;8.80;99.90
1123;DHT22;548;48.778;9.252;2023-04-01T05:10:25;8.80;99.90
1123;DHT22;548;48.778;9.252;2023-04-01T05:12:52;8.80;99.90
1123;DHT22;548;48.778;9.252;2023-04-01T05:15:20;8.80;99.90
1123;DHT22;548;48.778;9.252;2023-04-01T05:17:47;8.80;99.90
1123;DHT22;548;48.778;9.252;2023-04-01T05:20:14;8.90;99.90
1123;DHT22;548;48.778;9.252;2023-04-01T05:22:41;8.90;99.90
1123;DHT22;548;48.778;9.252;2023-04-01T05:25:08;8.90;99.90
1123;DHT22;548;48.778;9.252;2023-04-01T05:27:35;9.00;99.90
1123;DHT22;548;48.778;9.252;2023-04-01T05:30:02;9.00;99.90
1123;DHT22;548;48.778;9.252;2023-04-01T05:32:30;9.00;99.90
1123;DHT22;548;48.778;9.252;2023-04-01T05:34:57;9.10;99.90
1123;DHT22;548;48.778;9.252;2023-04-01T05:37:24;9.10;99.90
1123;DHT22;548;48.778;9.252;2023-04-01T05:39:51;9.10;99.90
1123;DHT22;548;48.778;9.252;2023-04-01T05:42:17;9.20;99.90
1123;DHT22;548;48.778;9.252;2023-04-01T05:44:44;9.30;99.90
1123;DHT22;548;48.778;9.252;2023-04-01T05:47:11;9.40;99.90
1123;DHT22;548;48.778;9.252;2023-04-01T05:49:39;9.50;99.90
1123;DHT22;548;48.778;9.252;2023-04-01T05:52:05;9.50;99.90
1123;DHT22;548;48.778;9.252;2023-04-01T05:54:33;9.60;99.90
1123;DHT22;548;48.778;9.252;2023-04-01T05:56:59;9.70;99.90
1123;DHT22;548;48.778;9.252;2023-04-01T05:59:26;9.80;99.90
1123;DHT22;548;48.778;9.252;2023-04-01T06:01:53;9.90;99.90
1123;DHT22;548;48.778;9.252;2023-04-01T06:04:20;10.00;99.90
1123;DHT22;548;48.778;9.252;2023-04-01T06:06:48;10.10;99.90
1123;DHT22;548;48.778;9.252;2023-04-01T06:09:16;10.20;99.90
1123;DHT22;548;48.778;9.252;2023-04-01T06:11:55;10.40;99.90
1123;DHT22;548;48.778;9.252;2023-04-01T06:14:32;10.40;99.90
1123;DHT22;548;48.778;9.252;2023-04-01T06:17:17;10.50;99.90
1123;DHT22;548;48.778;9.252;2023-04-01T06:19:51;10.50;99.90
1123;DHT22;548;48.778;9.252;2023-04-01T06:22:42;10.70;99.90
1123;DHT22;548;48.778;9.252;2023-04-01T06:25:34;10.80;99.90
1123;DHT22;548;48.778;9.252;2023-04-01T06:31:05;11.30;99.90
1123;DHT22;548;48.778;9.252;2023-04-01T06:33:46;11.30;99.90
1123;DHT22;548;48.778;9.252;2023-04-01T06:36:43;11.30;99.90
1123;DHT22;548;48.778;9.252;2023-04-01T06:39:25;11.40;99.90
1123;DHT22;548;48.778;9.252;2023-04-01T06:42:22;11.50;99.90
1123;DHT22;548;48.778;9.252;2023-04-01T06:44:58;11.40;99.90
1123;DHT22;548;48.778;9.252;2023-04-01T06:47:39;11.40;99.90
1123;DHT22;548;48.778;9.252;2023-04-01T06:50:21;11.50;99.90
1123;DHT22;548;48.778;9.252;2023-04-01T06:52:55;11.50;99.90
1123;DHT22;548;48.778;9.252;2023-04-01T06:55:30;11.50;99.90
1123;DHT22;548;48.778;9.252;2023-04-01T06:58:03;11.40;99.90
1123;DHT22;548;48.778;9.252;2023-04-01T07:00:32;11.30;99.90
1123;DHT22;548;48.778;9.252;2023-04-01T07:03:06;11.30;99.90
1123;DHT22;548;48.778;9.252;2023-04-01T07:05:36;11.30;99.90
1123;DHT22;548;48.778;9.252;2023-04-01T07:08:06;11.40;99.90
1123;DHT22;548;48.778;9.252;2023-04-01T07:10:43;11.50;99.90
1123;DHT22;548;48.778;9.252;2023-04-01T07:13:15;11.60;99.90
1123;DHT22;548;48.778;9.252;2023-04-01T07:15:57;11.70;99.90
1123;DHT22;548;48.778;9.252;2023-04-01T07:18:31;11.80;99.90
1123;DHT22;548;48.778;9.252;2023-04-01T07:20:59;11.80;99.90
1123;DHT22;548;48.778;9.252;2023-04-01T07:23:31;11.70;99.90
1123;DHT22;548;48.778;9.252;2023-04-01T07:26:16;11.80;99.90
1123;DHT22;548;48.778;9.252;2023-04-01T07:28:43;11.80;99.90
1123;DHT22;548;48.778;9.252;2023-04-01T07:31:20;11.80;99.90
1123;DHT22;548;48.778;9.252;2023-04-01T07:33:55;11.70;99.90
1123;DHT22;548;48.778;9.252;2023-04-01T07:36:28;11.60;99.90
1123;DHT22;548;48.778;9.252;2023-04-01T07:39:04;11.60;99.90
1123;DHT22;548;48.778;9.252;2023-04-01T07:41:43;11.70;99.90
1123;DHT22;548;48.778;9.252;2023-04-01T07:44:14;11.60;99.90
1123;DHT22;548;48.778;9.252;2023-04-01T07:46:53;11.60;99.90
1123;DHT22;548;48.778;9.252;2023-04-01T07:49:29;11.70;99.90
1123;DHT22;548;48.778;9.252;2023-04-01T07:52:00;11.70;99.90
1123;DHT22;548;48.778;9.252;2023-04-01T07:54:34;11.70;99.90
1123;DHT22;548;48.778;9.252;2023-04-01T07:57:09;11.90;99.90
1123;DHT22;548;48.778;9.252;2023-04-01T07:59:44;12.00;99.90
1123;DHT22;548;48.778;9.252;2023-04-01T08:02:21;11.90;99.90
1123;DHT22;548;48.778;9.252;2023-04-01T08:05:00;12.00;99.90
1123;DHT22;548;48.778;9.252;2023-04-01T08:07:36;11.90;99.90
1123;DHT22;548;48.778;9.252;2023-04-01T08:10:13;11.80;99.90
1123;DHT22;548;48.778;9.252;2023-04-01T08:12:51;11.70;99.90
1123;DHT22;548;48.778;9.252;2023-04-01T08:15:25;11.70;99.90
1123;DHT22;548;48.778;9.252;2023-04-01T08:18:11;11.90;99.90
1123;DHT22;548;48.778;9.252;2023-04-01T08:20:45;11.80;99.90
1123;DHT22;548;48.778;9.252;2023-04-01T08:23:14;11.90;99.90
1123;DHT22;548;48.778;9.252;2023-04-01T08:25:47;12.00;99.90
1123;DHT22;548;48.778;9.252;2023-04-01T08:28:20;12.10;99.90
1123;DHT22;548;48.778;9.252;2023-04-01T08:30:52;12.10;99.90
1123;DHT22;548;48.778;9.252;2023-04-01T08:33:24;12.30;99.90
1123;DHT22;548;48.778;9.252;2023-04-01T08:35:54;12.40;99.90
1123;DHT22;548;48.778;9.252;2023-04-01T08:38:26;12.30;99.90
1123;DHT22;548;48.778;9.252;2023-04-01T08:41:00;12.40;99.90
1123;DHT22;548;48.778;9.252;2023-04-01T08:49:53;11.70;99.90
1123;DHT22;548;48.778;9.252;2023-04-01T08:52:33;11.40;99.90
1123;DHT22;548;48.778;9.252;2023-04-01T08:55:25;11.10;99.90
1123;DHT22;548;48.778;9.252;2023-04-01T08:58:15;10.90;99.90
1123;DHT22;548;48.778;9.252;2023-04-01T09:00:48;10.60;99.90
1123;DHT22;548;48.778;9.252;2023-04-01T09:03:41;10.40;99.90
1123;DHT22;548;48.778;9.252;2023-04-01T09:06:28;10.40;99.90
1123;DHT22;548;48.778;9.252;2023-04-01T09:09:24;10.30;99.90
1123;DHT22;548;48.778;9.252;2023-04-01T09:12:19;10.20;99.90
1123;DHT22;548;48.778;9.252;2023-04-01T09:15:03;10.20;99.90
1123;DHT22;548;48.778;9.252;2023-04-01T09:17:53;10.20;99.90
1123;DHT22;548;48.778;9.252;2023-04-01T09:20:39;10.30;99.90
1123;DHT22;548;48.778;9.252;2023-04-01T09:23:18;10.40;99.90
1123;DHT22;548;48.778;9.252;2023-04-01T09:25:57;10.50;99.90
1123;DHT22;548;48.778;9.252;2023-04-01T09:28:30;10.40;99.90
1123;DHT22;548;48.778;9.252;2023-04-01T09:31:18;10.50;99.90
1123;DHT22;548;48.778;9.252;2023-04-01T09:36:59;10.70;99.90
1123;DHT22;548;48.778;9.252;2023-04-01T09:39:35;11.10;99.90
1123;DHT22;548;48.778;9.252;2023-04-01T09:42:15;11.30;99.90
1123;DHT22;548;48.778;9.252;2023-04-01T09:44:45;11.60;99.90
1123;DHT22;548;48.778;9.252;2023-04-01T09:47:25;11.60;99.90
1123;DHT22;548;48.778;9.252;2023-04-01T09:50:21;11.50;99.90
1123;DHT22;548;48.778;9.252;2023-04-01T09:53:00;11.30;99.90
1123;DHT22;548;48.778;9.252;2023-04-01T09:56:10;11.20;99.90
1123;DHT22;548;48.778;9.252;2023-04-01T10:01:54;11.10;99.90
1123;DHT22;548;48.778;9.252;2023-04-01T10:04:54;11.10;99.90
1123;DHT22;548;48.778;9.252;2023-04-01T10:13:46;11.20;99.90
1123;DHT22;548;48.778;9.252;2023-04-01T10:16:32;11.30;99.90
1123;DHT22;548;48.778;9.252;2023-04-01T10:19:43;11.20;99.90
1123;DHT22;548;48.778;9.252;2023-04-01T10:22:36;11.30;99.90
1123;DHT22;548;48.778;9.252;2023-04-01T10:25:24;11.60;99.90
1123;DHT22;548;48.778;9.252;2023-04-01T10:28:16;11.90;99.90
1123;DHT22;548;48.778;9.252;2023-04-01T10:34:12;12.10;99.90
1123;DHT22;548;48.778;9.252;2023-04-01T10:36:52;12.50;99.90
1123;DHT22;548;48.778;9.252;2023-04-01T10:43:06;12.80;99.90
1123;DHT22;548;48.778;9.252;2023-04-01T10:46:19;12.70;99.90
1123;DHT22;548;48.778;9.252;2023-04-01T10:49:10;12.60;99.90
1123;DHT22;548;48.778;9.252;2023-04-01T10:52:11;12.30;99.90
1123;DHT22;548;48.778;9.252;2023-04-01T10:55:12;12.30;99.90
1123;DHT22;548;48.778;9.252;2023-04-01T10:58:02;12.30;99.90
1123;DHT22;548;48.778;9.252;2023-04-01T11:01:05;12.60;99.90
1123;DHT22;548;48.778;9.252;2023-04-01T11:03:55;12.50;99.90
1123;DHT22;548;48.778;9.252;2023-04-01T11:06:53;12.10;99.90
1123;DHT22;548;48.778;9.252;2023-04-01T11:09:59;11.90;99.90
1123;DHT22;548;48.778;9.252;2023-04-01T11:13:05;11.90;99.90
1123;DHT22;548;48.778;9.252;2023-04-01T11:15:48;11.80;99.90
1123;DHT22;548;48.778;9.252;2023-04-01T11:19:10;11.90;99.90
1123;DHT22;548;48.778;9.252;2023-04-01T11:21:49;12.10;99.90
1123;DHT22;548;48.778;9.252;2023-04-01T11:24:29;12.40;99.90
1123;DHT22;548;48.778;9.252;2023-04-01T11:27:16;12.80;99.90
1123;DHT22;548;48.778;9.252;2023-04-01T11:29:57;13.30;99.90
1123;DHT22;548;48.778;9.252;2023-04-01T11:32:42;13.30;99.90
1123;DHT22;548;48.778;9.252;2023-04-01T11:35:28;13.30;99.90
1123;DHT22;548;48.778;9.252;2023-04-01T11:38:07;13.40;99.90
1123;DHT22;548;48.778;9.252;2023-04-01T11:40:43;13.30;99.90
1123;DHT22;548;48.778;9.252;2023-04-01T11:43:16;13.60;99.90
1123;DHT22;548;48.778;9.252;2023-04-01T11:45:50;13.70;99.90
1123;DHT22;548;48.778;9.252;2023-04-01T11:48:49;13.80;99.90
1123;DHT22;548;48.778;9.252;2023-04-01T11:54:33;13.90;99.90
1123;DHT22;548;48.778;9.252;2023-04-01T11:57:17;14.10;99.90
1123;DHT22;548;48.778;9.252;2023-04-01T12:00:02;14.10;99.90
1123;DHT22;548;48.778;9.252;2023-04-01T12:02:46;13.90;99.90
1123;DHT22;548;48.778;9.252;2023-04-01T12:05:39;13.90;99.90
1123;DHT22;548;48.778;9.252;2023-04-01T12:08:19;13.50;99.90
1123;DHT22;548;48.778;9.252;2023-04-01T12:10:55;13.10;99.90
1123;DHT22;548;48.778;9.252;2023-04-01T12:13:32;13.00;99.90
1123;DHT22;548;48.778;9.252;2023-04-01T12:16:24;13.00;99.90
1123;DHT22;548;48.778;9.252;2023-04-01T12:18:59;13.10;99.90
1123;DHT22;548;48.778;9.252;2023-04-01T12:21:33;13.20;99.90
1123;DHT22;548;48.778;9.252;2023-04-01T12:27:14;13.10;99.90
1123;DHT22;548;48.778;9.252;2023-04-01T12:30:04;13.10;99.90
1123;DHT22;548;48.778;9.252;2023-04-01T12:32:40;13.20;99.90
1123;DHT22;548;48.778;9.252;2023-04-01T12:35:18;12.90;99.90
1123;DHT22;548;48.778;9.252;2023-04-01T12:37:54;12.80;99.90
1123;DHT22;548;48.778;9.252;2023-04-01T12:40:49;12.50;99.90
1123;DHT22;548;48.778;9.252;2023-04-01T12:43:34;12.60;99.90
1123;DHT22;548;48.778;9.252;2023-04-01T12:46:15;12.70;99.90
1123;DHT22;548;48.778;9.252;2023-04-01T12:49:09;12.90;99.90
1123;DHT22;548;48.778;9.252;2023-04-01T12:51:53;13.10;99.90
1123;DHT22;548;48.778;9.252;2023-04-01T12:54:45;13.40;99.90
1123;DHT22;548;48.778;9.252;2023-04-01T12:57:34;13.40;99.90
1123;DHT22;548;48.778;9.252;2023-04-01T13:00:18;13.50;99.90
1123;DHT22;548;48.778;9.252;2023-04-01T13:03:01;13.50;99.90
1123;DHT22;548;48.778;9.252;2023-04-01T13:08:36;13.80;99.90
1123;DHT22;548;48.778;9.252;2023-04-01T13:11:15;13.90;99.90
1123;DHT22;548;48.778;9.252;2023-04-01T13:14:09;13.90;99.90
1123;DHT22;548;48.778;9.252;2023-04-01T13:16:43;13.70;99.90
1123;DHT22;548;48.778;9.252;2023-04-01T13:19:19;13.50;99.90
1123;DHT22;548;48.778;9.252;2023-04-01T13:21:54;13.60;99.90
1123;DHT22;548;48.778;9.252;2023-04-01T13:24:31;13.60;99.90
1123;DHT22;548;48.778;9.252;2023-04-01T13:27:07;13.50;99.90
1123;DHT22;548;48.778;9.252;2023-04-01T13:29:38;13.40;99.90
1123;DHT22;548;48.778;9.252;2023-04-01T13:32:18;13.60;99.90
1123;DHT22;548;48.778;9.252;2023-04-01T13:34:56;13.60;99.90
1123;DHT22;548;48.778;9.252;2023-04-01T13:37:37;13.80;99.90
1123;DHT22;548;48.778;9.252;2023-04-01T13:40:36;14.10;99.90
1123;DHT22;548;48.778;9.252;2023-04-01T13:43:12;14.00;99.90
1123;DHT22;548;48.778;9.252;2023-04-01T13:45:55;14.10;99.90
1123;DHT22;548;48.778;9.252;2023-04-01T13:48:36;14.10;99.90
1123;DHT22;548;48.778;9.252;2023-04-01T13:51:27;14.20;99.90
1123;DHT22;548;48.778;9.252;2023-04-01T13:54:23;14.30;99.90
1123;DHT22;548;48.778;9.252;2023-04-01T13:57:00;14.00;99.90
1123;DHT22;548;48.778;9.252;2023-04-01T13:59:45;14.00;99.90
1123;DHT22;548;48.778;9.252;2023-04-01T14:02:29;14.10;99.90
1123;DHT22;548;48.778;9.252;2023-04-01T14:05:13;14.10;99.90
1123;DHT22;548;48.778;9.252;2023-04-01T14:07:50;14.20;99.90
1123;DHT22;548;48.778;9.252;2023-04-01T14:10:28;14.10;99.90
1123;DHT22;548;48.778;9.252;2023-04-01T14:13:00;14.30;99.90
1123;DHT22;548;48.778;9.252;2023-04-01T14:15:37;14.50;99.90
1123;DHT22;548;48.778;9.252;2023-04-01T14:18:20;14.60;99.90
1123;DHT22;548;48.778;9.252;2023-04-01T14:20:58;14.50;99.90
1123;DHT22;548;48.778;9.252;2023-04-01T14:23:55;13.90;99.90
1123;DHT22;548;48.778;9.252;2023-04-01T14:26:55;13.80;99.90
1123;DHT22;548;48.778;9.252;2023-04-01T14:29:30;14.10;99.90
1123;DHT22;548;48.778;9.252;2023-04-01T14:32:11;13.80;99.90
1123;DHT22;548;48.778;9.252;2023-04-01T14:34:53;13.70;99.90
1123;DHT22;548;48.778;9.252;2023-04-01T14:37:43;13.70;99.90
1123;DHT22;548;48.778;9.252;2023-04-01T14:40:20;13.90;99.90
1123;DHT22;548;48.778;9.252;2023-04-01T14:43:10;13.90;99.90
1123;DHT22;548;48.778;9.252;2023-04-01T14:48:52;13.40;99.90
1123;DHT22;548;48.778;9.252;2023-04-01T14:51:23;13.10;99.90
1123;DHT22;548;48.778;9.252;2023-04-01T14:54:02;12.90;99.90
1123;DHT22;548;48.778;9.252;2023-04-01T14:56:41;12.60;99.90
1123;DHT22;548;48.778;9.252;2023-04-01T14:59:13;12.50;99.90
1123;DHT22;548;48.778;9.252;2023-04-01T15:01:47;12.40;99.90
1123;DHT22;548;48.778;9.252;2023-04-01T15:04:33;12.70;99.90
1123;DHT22;548;48.778;9.252;2023-04-01T15:07:15;12.70;99.90
1123;DHT22;548;48.778;9.252;2023-04-01T15:09:54;12.90;99.90
1123;DHT22;548;48.778;9.252;2023-04-01T15:12:29;13.00;99.90
1123;DHT22;548;48.778;9.252;2023-04-01T15:15:16;12.90;99.90
1123;DHT22;548;48.778;9.252;2023-04-01T15:17:55;12.80;99.90
1123;DHT22;548;48.778;9.252;2023-04-01T15:20:36;13.00;99.90
1123;DHT22;548;48.778;9.252;2023-04-01T15:23:19;13.00;99.90
1123;DHT22;548;48.778;9.252;2023-04-01T15:28:57;13.00;99.90
1123;DHT22;548;48.778;9.252;2023-04-01T15:31:29;12.90;99.90
1123;DHT22;548;48.778;9.252;2023-04-01T15:34:18;12.90;99.90
1123;DHT22;548;48.778;9.252;2023-04-01T15:36:53;12.90;99.90
1123;DHT22;548;48.778;9.252;2023-04-01T15:39:37;13.00;99.90
1123;DHT22;548;48.778;9.252;2023-04-01T15:42:24;13.10;99.90
1123;DHT22;548;48.778;9.252;2023-04-01T15:45:01;13.20;99.90
1123;DHT22;548;48.778;9.252;2023-04-01T15:47:35;13.00;99.90
1123;DHT22;548;48.778;9.252;2023-04-01T15:50:26;13.00;99.90
1123;DHT22;548;48.778;9.252;2023-04-01T15:53:03;13.10;99.90
1123;DHT22;548;48.778;9.252;2023-04-01T15:55:38;13.00;99.90
1123;DHT22;548;48.778;9.252;2023-04-01T15:58:24;12.90;99.90
1123;DHT22;548;48.778;9.252;2023-04-01T16:00:58;12.80;99.90
1123;DHT22;548;48.778;9.252;2023-04-01T16:03:37;12.80;99.90
1123;DHT22;548;48.778;9.252;2023-04-01T16:06:31;12.80;99.90
1123;DHT22;548;48.778;9.252;2023-04-01T16:09:11;12.70;99.90
1123;DHT22;548;48.778;9.252;2023-04-01T16:11:46;12.60;99.90
1123;DHT22;548;48.778;9.252;2023-04-01T16:14:28;12.60;99.90
1123;DHT22;548;48.778;9.252;2023-04-01T16:17:08;12.80;99.90
1123;DHT22;548;48.778;9.252;2023-04-01T16:19:44;12.70;99.90
1123;DHT22;548;48.778;9.252;2023-04-01T16:22:18;12.60;99.90
1123;DHT22;548;48.778;9.252;2023-04-01T16:24:48;12.60;99.90
1123;DHT22;548;48.778;9.252;2023-04-01T16:27:23;12.70;99.90
1123;DHT22;548;48.778;9.252;2023-04-01T16:29:56;12.70;99.90
1123;DHT22;548;48.778;9.252;2023-04-01T16:32:34;12.50;99.90
1123;DHT22;548;48.778;9.252;2023-04-01T16:35:23;12.40;99.90
1123;DHT22;548;48.778;9.252;2023-04-01T16:37:55;12.50;99.90
1123;DHT22;548;48.778;9.252;2023-04-01T16:40:36;12.60;99.90
1123;DHT22;548;48.778;9.252;2023-04-01T16:43:13;12.70;99.90
1123;DHT22;548;48.778;9.252;2023-04-01T16:45:53;12.60;99.90
1123;DHT22;548;48.778;9.252;2023-04-01T16:48:24;12.50;99.90
1123;DHT22;548;48.778;9.252;2023-04-01T16:50:58;12.50;99.90
1123;DHT22;548;48.778;9.252;2023-04-01T16:53:35;12.50;99.90
1123;DHT22;548;48.778;9.252;2023-04-01T16:56:11;12.60;99.90
1123;DHT22;548;48.778;9.252;2023-04-01T16:58:42;12.70;99.90
1123;DHT22;548;48.778;9.252;2023-04-01T17:01:14;12.70;99.90
1123;DHT22;548;48.778;9.252;2023-04-01T17:03:44;12.60;99.90
1123;DHT22;548;48.778;9.252;2023-04-01T17:06:22;12.80;99.90
1123;DHT22;548;48.778;9.252;2023-04-01T17:09:02;12.90;99.90
1123;DHT22;548;48.778;9.252;2023-04-01T17:11:38;12.90;99.90
1123;DHT22;548;48.778;9.252;2023-04-01T17:14:15;12.80;99.90
1123;DHT22;548;48.778;9.252;2023-04-01T17:16:52;12.80;99.90
1123;DHT22;548;48.778;9.252;2023-04-01T17:19:33;12.70;99.90
1123;DHT22;548;48.778;9.252;2023-04-01T17:22:11;12.80;99.90
1123;DHT22;548;48.778;9.252;2023-04-01T17:24:49;12.70;99.90
1123;DHT22;548;48.778;9.252;2023-04-01T17:27:24;12.70;99.90
1123;DHT22;548;48.778;9.252;2023-04-01T17:30:02;12.70;99.90
1123;DHT22;548;48.778;9.252;2023-04-01T17:32:45;12.60;99.90
1123;DHT22;548;48.778;9.252;2023-04-01T17:35:17;12.70;99.90
1123;DHT22;548;48.778;9.252;2023-04-01T17:37:56;12.70;99.90
1123;DHT22;548;48.778;9.252;2023-04-01T17:40:38;12.60;99.90
1123;DHT22;548;48.778;9.252;2023-04-01T17:43:15;12.60;99.90
1123;DHT22;548;48.778;9.252;2023-04-01T17:45:48;12.60;99.90
1123;DHT22;548;48.778;9.252;2023-04-01T17:48:26;12.50;99.90
1123;DHT22;548;48.778;9.252;2023-04-01T17:51:10;12.40;99.90
1123;DHT22;548;48.778;9.252;2023-04-01T17:53:45;12.40;99.90
1123;DHT22;548;48.778;9.252;2023-04-01T17:56:36;12.40;99.90
1123;DHT22;548;48.778;9.252;2023-04-01T17:59:13;12.50;99.90
1123;DHT22;548;48.778;9.252;2023-04-01T18:01:49;12.40;99.90
1123;DHT22;548;48.778;9.252;2023-04-01T18:04:41;12.40;99.90
1123;DHT22;548;48.778;9.252;2023-04-01T18:07:30;12.20;99.90
1123;DHT22;548;48.778;9.252;2023-04-01T18:10:11;12.20;99.90
1123;DHT22;548;48.778;9.252;2023-04-01T18:12:51;12.20;99.90
1123;DHT22;548;48.778;9.252;2023-04-01T18:15:28;12.20;99.90